createdAt,value
2023-04-14T00:00:06.404Z,100998.38
2023-04-14T00:02:36.221Z,100994.44
2023-04-14T00:05:04.235Z,100999.03
2023-04-14T00:07:30.699Z,101000.09
2023-04-14T00:09:57.103Z,100997.97
2023-04-14T00:12:23.771Z,100989.41
2023-04-14T00:14:50.257Z,100990.38
2023-04-14T00:17:16.776Z,100996.31
2023-04-14T00:19:43.280Z,101000.91
2023-04-14T00:22:09.726Z,101009.41
2023-04-14T00:24:43.418Z,101009.41
2023-04-14T00:27:10.954Z,101006.19
2023-04-14T00:29:40.762Z,101006.44
2023-04-14T00:32:07.281Z,100999.94
2023-04-14T00:34:34.224Z,101008.97
2023-04-14T00:37:00.791Z,101010.84
2023-04-14T00:39:27.238Z,101002.59
2023-04-14T00:41:53.661Z,101007.06
2023-04-14T00:44:20.376Z,101002.44
2023-04-14T00:46:48.034Z,101012.16
2023-04-14T00:49:15.556Z,101006.47
2023-04-14T00:51:42.158Z,101008.75
2023-04-14T00:54:09.997Z,101010.72
2023-04-14T00:56:36.688Z,101004.50
2023-04-14T00:59:03.949Z,101009.75
2023-04-14T01:01:31.043Z,101015.94
2023-04-14T01:03:58.076Z,101017.69
2023-04-14T01:06:24.652Z,101025.53
2023-04-14T01:08:51.269Z,101021.59
2023-04-14T01:11:49.034Z,101027.22
2023-04-14T01:14:31.551Z,101026.69
2023-04-14T01:17:07.998Z,101027.03
2023-04-14T01:19:51.381Z,101033.22
2023-04-14T01:22:22.089Z,101031.03
2023-04-14T01:25:09.750Z,101035.72
2023-04-14T01:28:08.985Z,101025.84
2023-04-14T01:30:53.068Z,101029.47
2023-04-14T01:33:22.561Z,101032.97
2023-04-14T01:35:53.042Z,101030.53
2023-04-14T01:38:27.439Z,101031.34
2023-04-14T01:40:57.834Z,101028.78
2023-04-14T01:43:28.335Z,101023.75
2023-04-14T01:45:58.917Z,101024.03
2023-04-14T01:48:26.472Z,101031.25
2023-04-14T01:50:55.378Z,101033.94
2023-04-14T01:53:23.208Z,101029.91
2023-04-14T01:55:51.210Z,101039.34
2023-04-14T01:58:20.413Z,101029.22
2023-04-14T02:00:49.415Z,101036.31
2023-04-14T02:03:19.659Z,101037.41
2023-04-14T02:05:48.811Z,101043.69
2023-04-14T02:08:17.932Z,101040.19
2023-04-14T02:10:46.906Z,101046.69
2023-04-14T02:13:14.464Z,101045.09
2023-04-14T02:15:41.610Z,101046.81
2023-04-14T02:18:08.268Z,101049.66
2023-04-14T02:20:38.114Z,101053.13
2023-04-14T02:23:04.577Z,101051.72
2023-04-14T02:25:33.758Z,101055.63
2023-04-14T02:28:10.503Z,101054.94
2023-04-14T02:30:42.397Z,101052.72
2023-04-14T02:33:12.588Z,101052.84
2023-04-14T02:36:04.303Z,101060.88
2023-04-14T02:38:39.136Z,101058.56
2023-04-14T02:41:12.891Z,101059.59
2023-04-14T02:44:01.639Z,101064.28
2023-04-14T02:46:32.273Z,101064.50
2023-04-14T02:49:02.621Z,101071.38
2023-04-14T02:51:31.755Z,101062.91
2023-04-14T02:53:58.388Z,101071.38
2023-04-14T02:56:25.646Z,101075.13
2023-04-14T02:58:52.473Z,101074.53
2023-04-14T03:01:19.831Z,101075.84
2023-04-14T03:03:46.829Z,101081.06
2023-04-14T03:06:15.740Z,101092.13
2023-04-14T03:08:44.096Z,101085.72
2023-04-14T03:11:13.311Z,101084.66
2023-04-14T03:13:41.496Z,101082.66
2023-04-14T03:16:09.468Z,101081.63
2023-04-14T03:18:37.086Z,101077.91
2023-04-14T03:21:05.037Z,101081.16
2023-04-14T03:23:33.200Z,101084.53
2023-04-14T03:26:01.304Z,101078.84
2023-04-14T03:28:30.386Z,101090.50
2023-04-14T03:31:01.234Z,101088.53
2023-04-14T03:33:30.755Z,101087.81
2023-04-14T03:35:58.699Z,101083.88
2023-04-14T03:38:28.492Z,101091.09
2023-04-14T03:40:59.905Z,101084.69
2023-04-14T03:43:28.509Z,101090.97
2023-04-14T03:45:55.051Z,101088.19
2023-04-14T03:48:26.133Z,101096.31
2023-04-14T03:50:55.004Z,101084.00
2023-04-14T03:53:21.772Z,101087.13
2023-04-14T03:55:51.430Z,101093.75
2023-04-14T03:58:18.623Z,101090.53
2023-04-14T04:00:46.698Z,101086.53
2023-04-14T04:03:14.988Z,101087.34
2023-04-14T04:05:43.133Z,101089.78
2023-04-14T04:08:10.460Z,101091.66
2023-04-14T04:10:38.872Z,101095.03
2023-04-14T04:13:10.171Z,101100.25
2023-04-14T04:15:39.129Z,101090.03
2023-04-14T04:18:08.532Z,101094.22
2023-04-14T04:20:38.260Z,101091.66
2023-04-14T04:23:07.668Z,101096.56
2023-04-14T04:25:37.339Z,101104.69
2023-04-14T04:28:04.193Z,101100.28
2023-04-14T04:30:33.101Z,101111.13
2023-04-14T04:33:03.634Z,101110.75
2023-04-14T04:35:31.704Z,101111.34
2023-04-14T04:37:58.398Z,101111.13
2023-04-14T04:40:24.806Z,101113.56
2023-04-14T04:42:51.217Z,101112.50
2023-04-14T04:45:44.000Z,101119.16
2023-04-14T04:48:10.705Z,101119.84
2023-04-14T04:50:37.227Z,101115.28
2023-04-14T04:53:03.616Z,101120.97
2023-04-14T04:55:29.984Z,101118.31
2023-04-14T04:57:56.368Z,101117.00
2023-04-14T05:00:23.037Z,101121.72
2023-04-14T05:02:49.578Z,101123.25
2023-04-14T05:05:16.165Z,101128.69
2023-04-14T05:07:43.325Z,101119.06
2023-04-14T05:10:09.886Z,101123.91
2023-04-14T05:12:36.340Z,101120.06
2023-04-14T05:15:03.144Z,101111.38
2023-04-14T05:17:29.554Z,101107.06
2023-04-14T05:19:57.482Z,101113.78
2023-04-14T05:22:24.021Z,101112.28
2023-04-14T05:24:51.208Z,101106.66
2023-04-14T05:27:17.624Z,101101.63
2023-04-14T05:29:44.041Z,101099.38
2023-04-14T05:32:11.531Z,101099.91
2023-04-14T05:34:37.928Z,101096.16
2023-04-14T05:37:04.331Z,101100.16
2023-04-14T05:39:30.691Z,101095.38
2023-04-14T05:41:57.074Z,101093.31
2023-04-14T05:44:23.832Z,101097.84
2023-04-14T05:46:50.283Z,101089.25
2023-04-14T05:49:17.545Z,101089.31
2023-04-14T05:51:43.972Z,101091.53
2023-04-14T05:54:10.550Z,101087.53
2023-04-14T05:56:36.969Z,101085.97
2023-04-14T05:59:03.446Z,101088.13
2023-04-14T06:01:32.161Z,101087.94
2023-04-14T06:03:58.840Z,101090.81
2023-04-14T06:06:26.176Z,101093.34
2023-04-14T06:08:52.654Z,101092.97
2023-04-14T06:11:19.083Z,101086.44
2023-04-14T06:13:45.468Z,101087.28
2023-04-14T06:16:11.951Z,101089.28
2023-04-14T06:18:38.850Z,101080.94
2023-04-14T06:21:05.322Z,101084.81
2023-04-14T06:23:32.281Z,101087.56
2023-04-14T06:25:58.889Z,101082.22
2023-04-14T06:28:26.368Z,101075.16
2023-04-14T06:30:52.858Z,101073.13
2023-04-14T06:33:23.963Z,101068.41
2023-04-14T06:35:50.403Z,101077.03
2023-04-14T06:38:16.841Z,101076.03
2023-04-14T06:40:44.032Z,101074.59
2023-04-14T06:43:14.913Z,101069.09
2023-04-14T06:45:41.640Z,101069.44
2023-04-14T06:48:08.239Z,101066.66
2023-04-14T06:50:34.763Z,101066.66
2023-04-14T06:53:01.177Z,101056.66
2023-04-14T06:55:27.640Z,101057.38
2023-04-14T06:57:54.636Z,101058.47
2023-04-14T07:00:21.540Z,101056.91
2023-04-14T07:02:48.096Z,101071.59
2023-04-14T07:05:14.994Z,101066.44
2023-04-14T07:07:41.446Z,101062.44
2023-04-14T07:10:08.281Z,101065.91
2023-04-14T07:12:34.803Z,101062.72
2023-04-14T07:15:01.288Z,101060.88
2023-04-14T07:17:27.705Z,101055.16
2023-04-14T07:19:54.132Z,101051.84
2023-04-14T07:22:20.760Z,101061.03
2023-04-14T07:24:47.171Z,101052.53
2023-04-14T07:27:16.597Z,101056.94
2023-04-14T07:29:44.562Z,101049.00
2023-04-14T07:32:13.227Z,101052.50
2023-04-14T07:34:43.569Z,101049.53
2023-04-14T07:37:10.823Z,101061.06
2023-04-14T07:39:37.371Z,101046.91
2023-04-14T07:42:04.182Z,101055.06
2023-04-14T07:44:30.671Z,101052.13
2023-04-14T07:46:57.110Z,101055.16
2023-04-14T07:49:23.577Z,101046.38
2023-04-14T07:51:50.847Z,101050.00
2023-04-14T07:54:17.299Z,101054.63
2023-04-14T07:56:43.672Z,101050.81
2023-04-14T07:59:10.346Z,101049.56
2023-04-14T08:01:37.624Z,101049.66
2023-04-14T08:04:04.409Z,101042.91
2023-04-14T08:06:31.349Z,101053.88
2023-04-14T08:08:57.824Z,101057.06
2023-04-14T08:11:24.542Z,101058.09
2023-04-14T08:13:52.800Z,101055.50
2023-04-14T08:16:19.441Z,101052.06
2023-04-14T08:18:45.904Z,101052.69
2023-04-14T08:21:12.746Z,101055.81
2023-04-14T08:23:39.258Z,101061.56
2023-04-14T08:26:05.744Z,101055.75
2023-04-14T08:28:32.178Z,101056.47
2023-04-14T08:30:58.889Z,101055.13
2023-04-14T08:33:25.457Z,101055.34
2023-04-14T08:35:59.402Z,101057.75
2023-04-14T08:38:26.668Z,101048.09
2023-04-14T08:40:58.998Z,101054.34
2023-04-14T08:43:25.720Z,101056.94
2023-04-14T08:45:53.346Z,101058.97
2023-04-14T08:48:22.479Z,101053.75
2023-04-14T08:51:17.834Z,101062.56
2023-04-14T08:53:48.602Z,101057.56
2023-04-14T08:56:17.977Z,101059.13
2023-04-14T08:58:45.217Z,101052.88
2023-04-14T09:01:12.299Z,101050.47
2023-04-14T09:03:39.700Z,101052.75
2023-04-14T09:06:06.427Z,101049.53
2023-04-14T09:08:34.129Z,101053.16
2023-04-14T09:11:04.393Z,101049.13
2023-04-14T09:13:31.895Z,101044.91
2023-04-14T09:15:59.984Z,101036.06
2023-04-14T09:18:28.330Z,101036.44
2023-04-14T09:21:34.354Z,101038.84
2023-04-14T09:23:42.239Z,101036.41
2023-04-14T09:26:10.357Z,101033.19
2023-04-14T09:28:37.706Z,101028.41
2023-04-14T09:31:04.951Z,101031.41
2023-04-14T09:33:32.479Z,101029.63
2023-04-14T09:35:59.136Z,101028.38
2023-04-14T09:38:37.174Z,101035.25
2023-04-14T09:41:06.045Z,101029.00
2023-04-14T09:43:32.647Z,101025.97
2023-04-14T09:46:05.590Z,101033.00
2023-04-14T09:48:32.390Z,101027.00
2023-04-14T09:51:03.457Z,101026.59
2023-04-14T09:53:32.764Z,101020.34
2023-04-14T09:56:02.783Z,101018.53
2023-04-14T09:58:31.539Z,101017.44
2023-04-14T10:00:59.404Z,101010.28
2023-04-14T10:03:38.687Z,101014.75
2023-04-14T10:06:20.510Z,101006.59
2023-04-14T10:08:49.098Z,101002.19
2023-04-14T10:11:22.931Z,101007.72
2023-04-14T10:13:51.455Z,101006.28
2023-04-14T10:16:18.037Z,100999.44
2023-04-14T10:18:44.753Z,100999.69
2023-04-14T10:21:13.888Z,101000.84
2023-04-14T10:23:41.472Z,100993.63
2023-04-14T10:26:09.459Z,100991.41
2023-04-14T10:28:43.800Z,100988.91
2023-04-14T10:31:25.269Z,100988.38
2023-04-14T10:33:52.458Z,100990.00
2023-04-14T10:36:27.930Z,100989.50
2023-04-14T10:39:01.022Z,100981.13
2023-04-14T10:41:36.898Z,100980.56
2023-04-14T10:44:06.347Z,100979.16
2023-04-14T10:46:46.664Z,100985.44
2023-04-14T10:49:13.350Z,100982.34
2023-04-14T10:51:40.084Z,100983.63
2023-04-14T10:54:19.490Z,100978.84
2023-04-14T10:57:10.521Z,100980.47
2023-04-14T10:59:43.535Z,100973.53
2023-04-14T11:02:31.232Z,100973.34
2023-04-14T11:04:58.854Z,100977.41
2023-04-14T11:07:25.253Z,100974.84
2023-04-14T11:09:51.626Z,100965.19
2023-04-14T11:12:26.405Z,100968.06
2023-04-14T11:14:56.996Z,100967.38
2023-04-14T11:17:23.476Z,100963.97
2023-04-14T11:19:55.378Z,100966.38
2023-04-14T11:22:41.605Z,100953.38
2023-04-14T11:25:10.893Z,100962.66
2023-04-14T11:27:37.799Z,100956.97
2023-04-14T11:30:07.090Z,100953.38
2023-04-14T11:32:54.291Z,100959.25
2023-04-14T11:35:24.037Z,100952.09
2023-04-14T11:37:54.094Z,100952.94
2023-04-14T11:40:21.749Z,100959.94
2023-04-14T11:42:53.182Z,100957.63
2023-04-14T11:45:19.774Z,100955.31
2023-04-14T11:48:06.121Z,100950.50
2023-04-14T11:50:35.820Z,100947.94
2023-04-14T11:53:04.203Z,100954.91
2023-04-14T11:55:30.806Z,100960.38
2023-04-14T11:57:57.859Z,100955.41
2023-04-14T12:00:24.917Z,100954.31
2023-04-14T12:02:51.875Z,100953.72
2023-04-14T12:05:25.508Z,100954.91
2023-04-14T12:07:59.156Z,100952.06
2023-04-14T12:10:26.506Z,100958.81
2023-04-14T12:13:06.932Z,100950.53
2023-04-14T12:15:39.137Z,100951.25
2023-04-14T12:18:11.456Z,100946.56
2023-04-14T12:20:55.433Z,100939.72
2023-04-14T12:23:22.209Z,100953.88
2023-04-14T12:25:52.027Z,100938.72
2023-04-14T12:28:20.470Z,100940.19
2023-04-14T12:30:52.059Z,100942.94
2023-04-14T12:33:23.024Z,100941.81
2023-04-14T12:35:53.842Z,100942.25
2023-04-14T12:38:26.729Z,100946.00
2023-04-14T12:40:53.308Z,100937.41
2023-04-14T12:43:31.482Z,100940.50
2023-04-14T12:45:59.042Z,100946.06
2023-04-14T12:48:45.686Z,100935.38
2023-04-14T12:51:17.063Z,100921.78
2023-04-14T12:53:44.521Z,100926.50
2023-04-14T12:56:27.355Z,100919.56
2023-04-14T12:58:55.233Z,100920.16
2023-04-14T13:01:22.688Z,100913.72
2023-04-14T13:03:57.558Z,100920.56
2023-04-14T13:06:25.335Z,100923.56
2023-04-14T13:08:53.279Z,100919.34
2023-04-14T13:11:21.406Z,100917.97
2023-04-14T13:13:48.174Z,100907.59
2023-04-14T13:16:16.780Z,100916.19
2023-04-14T13:18:45.826Z,100910.25
2023-04-14T13:21:12.636Z,100913.66
2023-04-14T13:23:39.377Z,100915.63
2023-04-14T13:26:06.099Z,100917.63
2023-04-14T13:28:32.515Z,100912.38
2023-04-14T13:30:58.971Z,100905.94
2023-04-14T13:33:26.423Z,100911.25
2023-04-14T13:35:53.477Z,100906.88
2023-04-14T13:38:20.067Z,100911.66
2023-04-14T13:40:48.101Z,100906.63
2023-04-14T13:43:18.249Z,100899.94
2023-04-14T13:45:45.181Z,100895.69
2023-04-14T13:48:11.704Z,100894.19
2023-04-14T13:50:38.184Z,100893.34
2023-04-14T13:53:04.633Z,100897.22
2023-04-14T13:55:31.566Z,100891.50
2023-04-14T13:57:58.203Z,100870.91
2023-04-14T14:00:24.916Z,100877.38
2023-04-14T14:02:52.079Z,100879.09
2023-04-14T14:05:18.877Z,100876.53
2023-04-14T14:07:45.869Z,100883.19
2023-04-14T14:10:12.444Z,100878.31
2023-04-14T14:12:39.076Z,100873.19
2023-04-14T14:15:07.902Z,100864.31
2023-04-14T14:17:34.507Z,100851.19
2023-04-14T14:20:00.975Z,100851.94
2023-04-14T14:22:27.477Z,100849.84
2023-04-14T14:25:07.250Z,100853.78
2023-04-14T14:27:44.783Z,100849.97
2023-04-14T14:30:11.661Z,100856.94
2023-04-14T14:32:39.522Z,100841.69
2023-04-14T14:35:06.287Z,100849.38
2023-04-14T14:37:32.701Z,100843.00
2023-04-14T14:39:59.125Z,100838.59
2023-04-14T14:42:26.809Z,100832.41
2023-04-14T14:44:53.568Z,100830.31
2023-04-14T14:47:20.436Z,100833.22
2023-04-14T14:49:57.173Z,100827.34
2023-04-14T14:52:34.273Z,100830.06
2023-04-14T14:55:01.405Z,100837.16
2023-04-14T14:57:29.221Z,100825.72
2023-04-14T14:59:55.673Z,100830.31
2023-04-14T15:02:22.352Z,100827.91
2023-04-14T15:04:50.159Z,100832.00
2023-04-14T15:07:17.166Z,100813.00
2023-04-14T15:09:46.098Z,100817.41
2023-04-14T15:12:13.061Z,100816.63
2023-04-14T15:14:39.648Z,100814.66
2023-04-14T15:17:06.177Z,100811.63
2023-04-14T15:19:32.888Z,100806.41
2023-04-14T15:21:59.371Z,100811.84
2023-04-14T15:24:26.023Z,100811.72
2023-04-14T15:26:52.841Z,100825.91
2023-04-14T15:29:24.873Z,100821.63
2023-04-14T15:31:51.407Z,100821.09
2023-04-14T15:34:17.852Z,100823.16
2023-04-14T15:36:44.285Z,100824.38
2023-04-14T15:39:10.826Z,100818.75
2023-04-14T15:41:37.183Z,100823.53
2023-04-14T15:44:03.948Z,100823.16
2023-04-14T15:46:30.515Z,100830.13
2023-04-14T15:48:56.978Z,100826.47
2023-04-14T15:51:23.341Z,100817.31
2023-04-14T15:53:51.278Z,100823.34
2023-04-14T15:56:18.058Z,100823.00
2023-04-14T15:58:44.399Z,100829.66
2023-04-14T16:01:10.930Z,100823.25
2023-04-14T16:03:37.974Z,100829.44
2023-04-14T16:06:07.166Z,100831.84
2023-04-14T16:08:33.734Z,100824.41
2023-04-14T16:11:00.148Z,100828.66
2023-04-14T16:13:26.680Z,100828.69
2023-04-14T16:15:53.583Z,100823.88
2023-04-14T16:18:20.064Z,100831.13
2023-04-14T16:20:47.871Z,100826.25
2023-04-14T16:23:14.399Z,100828.00
2023-04-14T16:25:41.554Z,100827.06
2023-04-14T16:28:07.911Z,100822.34
2023-04-14T16:30:34.328Z,100825.06
2023-04-14T16:33:00.858Z,100822.56
2023-04-14T16:35:27.333Z,100819.81
2023-04-14T16:37:53.819Z,100821.00
2023-04-14T16:40:20.201Z,100819.13
2023-04-14T16:42:47.287Z,100809.97
2023-04-14T16:45:13.795Z,100819.75
2023-04-14T16:47:40.553Z,100815.56
2023-04-14T16:50:07.734Z,100814.00
2023-04-14T16:52:34.969Z,100814.00
2023-04-14T16:55:01.995Z,100820.09
2023-04-14T16:57:28.541Z,100820.06
2023-04-14T16:59:54.915Z,100819.56
2023-04-14T17:02:21.703Z,100832.56
2023-04-14T17:04:48.663Z,100833.31
2023-04-14T17:07:15.410Z,100828.13
2023-04-14T17:09:42.051Z,100840.06
2023-04-14T17:12:08.578Z,100835.66
2023-04-14T17:14:35.659Z,100841.13
2023-04-14T17:17:02.704Z,100834.28
2023-04-14T17:19:29.504Z,100833.13
2023-04-14T17:21:55.893Z,100831.72
2023-04-14T17:24:23.133Z,100836.72
2023-04-14T17:26:50.263Z,100837.56
2023-04-14T17:29:16.935Z,100834.56
2023-04-14T17:31:44.616Z,100830.34
2023-04-14T17:34:11.767Z,100836.59
2023-04-14T17:36:39.352Z,100838.41
2023-04-14T17:39:08.127Z,100837.78
2023-04-14T17:41:34.662Z,100842.81
2023-04-14T17:44:01.650Z,100842.44
2023-04-14T17:46:33.573Z,100847.47
2023-04-14T17:49:03.909Z,100850.47
2023-04-14T17:51:31.317Z,100861.47
2023-04-14T17:53:58.870Z,100858.47
2023-04-14T17:56:25.612Z,100860.03
2023-04-14T17:58:52.445Z,100866.47
2023-04-14T18:01:19.772Z,100856.44
2023-04-14T18:03:46.538Z,100866.44
2023-04-14T18:06:13.380Z,100865.22
2023-04-14T18:08:39.827Z,100863.19
2023-04-14T18:11:06.614Z,100865.22
2023-04-14T18:13:33.506Z,100861.59
2023-04-14T18:15:59.953Z,100870.63
2023-04-14T18:18:27.385Z,100863.38
2023-04-14T18:20:53.939Z,100868.78
2023-04-14T18:23:20.332Z,100871.38
2023-04-14T18:28:16.084Z,100878.34
2023-04-14T18:30:42.593Z,100877.56
2023-04-14T18:33:08.983Z,100885.56
2023-04-14T18:35:35.392Z,100886.91
2023-04-14T18:38:01.841Z,100890.66
2023-04-14T18:40:28.307Z,100885.41
2023-04-14T18:42:55.181Z,100890.19
2023-04-14T18:45:21.728Z,100892.59
2023-04-14T18:47:48.370Z,100889.94
2023-04-14T18:50:15.292Z,100896.88
2023-04-14T18:52:41.686Z,100905.69
2023-04-14T18:55:09.404Z,100903.44
2023-04-14T18:57:36.097Z,100903.75
2023-04-14T19:00:02.566Z,100909.28
2023-04-14T19:02:29.142Z,100901.84
2023-04-14T19:04:56.358Z,100909.00
2023-04-14T19:07:22.961Z,100908.47
2023-04-14T19:09:49.669Z,100910.63
2023-04-14T19:14:48.842Z,100921.00
2023-04-14T19:17:16.008Z,100918.75
2023-04-14T19:19:42.566Z,100929.53
2023-04-14T19:22:08.930Z,100927.31
2023-04-14T19:24:35.917Z,100930.88
2023-04-14T19:27:04.553Z,100935.19
2023-04-14T19:29:31.013Z,100933.88
2023-04-14T19:31:57.535Z,100935.72
2023-04-14T19:34:24.096Z,100938.25
2023-04-14T19:36:50.533Z,100933.31
2023-04-14T19:39:17.053Z,100941.47
2023-04-14T19:41:43.411Z,100945.88
2023-04-14T19:44:11.795Z,100949.19
2023-04-14T19:46:40.623Z,100950.66
2023-04-14T19:49:08.014Z,100958.66
2023-04-14T19:51:34.948Z,100949.06
2023-04-14T19:54:01.453Z,100949.59
2023-04-14T19:56:28.495Z,100953.19
2023-04-14T19:58:54.888Z,100949.66
2023-04-14T20:01:21.422Z,100947.41
2023-04-14T20:04:08.194Z,100951.00
2023-04-14T20:06:34.696Z,100956.88
2023-04-14T20:09:03.670Z,100952.75
2023-04-14T20:11:31.103Z,100954.44
2023-04-14T20:13:57.722Z,100951.38
2023-04-14T20:16:24.564Z,100944.94
2023-04-14T20:18:51.592Z,100951.44
2023-04-14T20:21:18.608Z,100954.22
2023-04-14T20:23:45.119Z,100952.03
2023-04-14T20:26:11.564Z,100951.72
2023-04-14T20:28:39.767Z,100955.03
2023-04-14T20:31:06.711Z,100947.88
2023-04-14T20:33:33.143Z,100947.94
2023-04-14T20:36:01.669Z,100957.84
2023-04-14T20:38:29.282Z,100958.88
2023-04-14T20:40:55.745Z,100956.81
2023-04-14T20:43:22.258Z,100947.72
2023-04-14T20:45:49.707Z,100949.00
2023-04-14T20:48:16.419Z,100949.97
2023-04-14T20:50:44.509Z,100951.44
2023-04-14T20:53:11.059Z,100951.31
2023-04-14T20:55:37.583Z,100945.22
2023-04-14T20:58:04.062Z,100945.75
2023-04-14T21:00:32.450Z,100949.19
2023-04-14T21:03:00.900Z,100948.56
2023-04-14T21:05:27.410Z,100946.34
2023-04-14T21:07:53.801Z,100948.81
2023-04-14T21:10:20.718Z,100953.88
2023-04-14T21:15:28.580Z,100944.78
2023-04-14T21:15:56.092Z,100947.38
2023-04-14T21:18:20.232Z,100945.25
2023-04-14T21:20:46.721Z,100939.13
2023-04-14T21:23:13.155Z,100944.00
2023-04-14T21:25:39.647Z,100947.88
2023-04-14T21:28:06.095Z,100943.19
2023-04-14T21:30:32.487Z,100945.00
2023-04-14T21:32:59.141Z,100944.69
2023-04-14T21:35:25.892Z,100946.75
2023-04-14T21:37:52.338Z,100948.88
2023-04-14T21:40:19.083Z,100956.31
2023-04-14T21:42:45.793Z,100957.28
2023-04-14T21:45:12.169Z,100952.41
2023-04-14T21:47:38.679Z,100952.09
2023-04-14T21:50:07.234Z,100964.22
2023-04-14T21:52:33.608Z,100964.88
2023-04-14T21:54:59.963Z,100960.16
2023-04-14T21:57:43.725Z,100960.16
2023-04-14T22:00:15.503Z,100964.22
2023-04-14T22:02:43.745Z,100963.88
2023-04-14T22:05:10.451Z,100960.47
2023-04-14T22:07:37.533Z,100968.84
2023-04-14T22:10:04.372Z,100972.06
2023-04-14T22:12:31.416Z,100962.84
2023-04-14T22:15:00.597Z,100962.53
2023-04-14T22:17:27.097Z,100970.28
2023-04-14T22:19:53.718Z,100965.47
2023-04-14T22:22:20.103Z,100967.56
2023-04-14T22:24:46.691Z,100967.25
2023-04-14T22:27:13.047Z,100978.38
2023-04-14T22:29:39.454Z,100966.25
2023-04-14T22:32:07.116Z,100976.91
2023-04-14T22:34:33.484Z,100973.81
2023-04-14T22:37:00.217Z,100975.47
2023-04-14T22:39:26.828Z,100980.66
2023-04-14T22:41:53.244Z,100975.47
2023-04-14T22:44:19.688Z,100983.56
2023-04-14T22:46:46.118Z,100983.88
2023-04-14T22:49:12.796Z,100991.75
2023-04-14T22:51:39.156Z,100987.44
2023-04-14T22:54:06.804Z,100989.88
2023-04-14T22:56:33.339Z,100999.72
2023-04-14T22:58:59.958Z,100999.41
2023-04-14T23:01:27.914Z,100998.91
2023-04-14T23:03:54.657Z,100998.28
2023-04-14T23:06:22.859Z,100989.38
2023-04-14T23:08:50.920Z,100994.91
2023-04-14T23:11:20.285Z,100996.19
2023-04-14T23:13:47.301Z,100999.72
2023-04-14T23:16:13.718Z,101004.72
2023-04-14T23:18:40.176Z,101002.69
2023-04-14T23:21:06.692Z,101003.00
2023-04-14T23:23:33.069Z,100996.50
2023-04-14T23:25:59.553Z,101012.00
2023-04-14T23:28:26.251Z,101012.69
2023-04-14T23:30:52.878Z,101007.66
2023-04-14T23:33:19.621Z,101010.41
2023-04-14T23:35:46.447Z,101010.88
2023-04-14T23:38:12.840Z,101009.75
2023-04-14T23:40:39.483Z,101011.22
2023-04-14T23:43:05.888Z,101016.06
2023-04-14T23:45:36.940Z,101017.31
2023-04-14T23:48:07.433Z,101013.75
2023-04-14T23:51:01.403Z,101021.00
2023-04-14T23:53:21.197Z,101019.69
2023-04-14T23:55:47.609Z,101015.16
2023-04-14T23:58:26.019Z,101016.09
